Time;durP1;ratioP1;P1;durP2;ratioP2;P2;SDS_P1;SDS_P2;PMS_P1;PMS_P2;Temp;Humidity;BMP_temperature;BMP_pressure;BME280_temperature;BME280_humidity;BME280_pressure;Samples;Min_cycle;Max_cycle;Signal;HPM_P1;HPM_P2
2021/03/10 00:02:52;;;;;;;137.03;53.13;;;;;;;-3.45;64.59;99362.92;4448134;78;21185;-81
2021/03/10 00:08:57;;;;;;;129.80;50.37;;;;;;;-3.50;64.73;99363.75;4441175;78;21141;-82
2021/03/10 00:14:59;;;;;;;131.97;51.88;;;;;;;-3.58;64.91;99362.98;4436241;78;21172;-81
2021/03/10 00:21:00;;;;;;;138.03;50.70;;;;;;;-3.56;65.33;99366.72;4434021;79;21189;-80
2021/03/10 00:27:02;;;;;;;140.53;52.27;;;;;;;-3.64;65.20;99364.09;4433903;79;21161;-79
2021/03/10 00:33:03;;;;;;;133.00;51.17;;;;;;;-3.64;65.52;99361.41;4444138;79;21209;-79
2021/03/10 00:39:05;;;;;;;147.47;57.83;;;;;;;-3.81;65.83;99366.81;4431523;79;21189;-79
2021/03/10 00:45:08;;;;;;;177.97;62.37;;;;;;;-3.76;65.91;99364.91;4433200;79;21165;-80
2021/03/10 00:51:10;;;;;;;180.60;64.77;;;;;;;-3.78;66.12;99352.89;4433641;79;21170;-79
2021/03/10 00:57:11;;;;;;;165.67;61.57;;;;;;;-3.82;66.22;99342.48;4442495;78;21637;-80
2021/03/10 01:03:13;;;;;;;160.77;61.73;;;;;;;-4.05;66.43;99339.88;4445404;78;21180;-80
2021/03/10 01:09:16;;;;;;;166.47;64.20;;;;;;;-4.10;65.96;99335.87;4443248;78;21141;-80
2021/03/10 01:15:20;;;;;;;164.63;61.97;;;;;;;-4.17;66.52;99343.39;4449220;78;21178;-79
2021/03/10 01:21:24;;;;;;;160.70;60.50;;;;;;;-4.21;66.83;99337.52;4444822;78;21227;-79
2021/03/10 01:27:25;;;;;;;167.07;62.40;;;;;;;-4.18;67.26;99333.75;4442974;78;21165;-79
2021/03/10 01:33:27;;;;;;;168.13;58.83;;;;;;;-4.46;67.22;99335.67;4449514;78;21153;-79
2021/03/10 01:39:28;;;;;;;148.90;57.83;;;;;;;-4.42;67.72;99333.27;4443323;78;21153;-79
2021/03/10 01:45:32;;;;;;;165.37;64.50;;;;;;;-4.48;67.14;99339.70;4447885;78;21201;-79
2021/03/10 01:51:34;;;;;;;151.20;58.70;;;;;;;-4.50;68.04;99329.80;4442964;78;21649;-78
2021/03/10 01:57:36;;;;;;;147.23;61.63;;;;;;;-4.60;67.82;99326.59;4450903;78;21182;-79
2021/03/10 02:03:37;;;;;;;149.83;60.13;;;;;;;-4.64;67.85;99326.88;4440819;78;21811;-78
2021/03/10 02:10:09;;;;;;;154.00;57.63;;;;;;;-4.74;68.17;99324.20;4434269;78;21632;-78
2021/03/10 02:16:28;;;;;;;158.33;59.77;;;;;;;-4.79;68.26;99317.52;4420019;79;21783;-78
2021/03/10 02:22:50;;;;;;;136.90;57.10;;;;;;;-5.02;68.42;99327.41;4422901;79;21296;-78
2021/03/10 02:28:54;;;;;;;150.23;59.17;;;;;;;-5.17;68.46;99327.40;4418016;79;21596;-78
2021/03/10 02:34:57;;;;;;;139.37;55.73;;;;;;;-5.28;68.85;99330.56;4422281;79;21172;-78
2021/03/10 02:40:59;;;;;;;145.87;56.07;;;;;;;-5.29;68.70;99320.96;4424332;79;21228;-78
2021/03/10 02:47:02;;;;;;;138.47;57.17;;;;;;;-5.28;69.45;99325.78;4424139;79;21357;-78
2021/03/10 02:53:08;;;;;;;129.37;54.13;;;;;;;-5.33;68.90;99326.57;4424161;79;21152;-78
2021/03/10 02:59:10;;;;;;;130.77;52.83;;;;;;;-5.55;68.68;99332.65;4423189;79;21180;-79
2021/03/10 03:05:13;;;;;;;144.23;56.73;;;;;;;-5.60;69.47;99333.96;4421718;79;21133;-78
2021/03/10 03:11:14;;;;;;;137.40;56.60;;;;;;;-5.61;69.40;99339.56;4424629;79;21695;-78
2021/03/10 03:17:16;;;;;;;136.67;56.10;;;;;;;-5.52;69.73;99334.80;4423036;79;21298;-78
2021/03/10 03:23:20;;;;;;;128.60;58.00;;;;;;;-5.53;69.75;99337.72;4425133;79;21141;-78
2021/03/10 03:29:25;;;;;;;137.10;56.50;;;;;;;-5.77;69.71;99339.23;4425026;79;21153;-78
2021/03/10 03:35:27;;;;;;;133.77;53.87;;;;;;;-5.85;70.30;99335.23;4425629;79;21342;-77
2021/03/10 03:41:29;;;;;;;130.67;55.37;;;;;;;-5.85;70.43;99330.42;4423221;79;21345;-77
2021/03/10 03:47:31;;;;;;;143.47;56.27;;;;;;;-5.84;70.02;99330.16;4423555;79;21128;-78
2021/03/10 03:53:32;;;;;;;130.70;55.30;;;;;;;-5.89;70.26;99326.16;4422202;79;21350;-77
2021/03/10 03:59:37;;;;;;;136.87;52.90;;;;;;;-6.13;70.13;99332.97;4423404;79;21465;-78
2021/03/10 04:05:40;;;;;;;109.40;46.13;;;;;;;-6.22;70.95;99340.38;4422707;79;21625;-77
2021/03/10 04:11:47;;;;;;;148.13;58.83;;;;;;;-6.12;71.02;99341.23;4424809;79;21199;-77
2021/03/10 04:17:49;;;;;;;130.53;51.63;;;;;;;-6.11;71.17;99343.38;4423285;79;21461;-77
2021/03/10 04:23:50;;;;;;;137.73;53.53;;;;;;;-6.23;71.02;99346.78;4425010;77;21327;-77
2021/03/10 04:29:51;;;;;;;143.03;55.73;;;;;;;-6.31;71.60;99344.59;4424226;79;21177;-77
2021/03/10 04:35:53;;;;;;;138.67;55.57;;;;;;;-6.53;70.85;99351.38;4423262;79;21161;-77
2021/03/10 04:41:54;;;;;;;140.10;56.80;;;;;;;-6.57;71.60;99354.27;4414785;79;21266;-77
2021/03/10 04:47:56;;;;;;;145.73;57.37;;;;;;;-6.54;71.51;99355.08;4428362;79;22440;-77
2021/03/10 04:53:57;;;;;;;150.07;57.97;;;;;;;-6.50;71.94;99351.65;4383432;79;29689;-77
2021/03/10 04:59:58;;;;;;;157.00;60.07;;;;;;;-6.34;71.88;99351.77;3944445;88;21206;-76
2021/03/10 05:06:00;;;;;;;130.77;53.27;;;;;;;-6.26;71.42;99346.74;3937323;89;21261;-77
2021/03/10 05:12:02;;;;;;;135.53;56.70;;;;;;;-6.58;71.27;99356.66;3975337;87;21231;-77
2021/03/10 05:18:03;;;;;;;132.13;54.47;;;;;;;-6.40;71.84;99368.78;4010107;87;21187;-76
2021/03/10 05:24:06;;;;;;;145.87;56.70;;;;;;;-6.64;71.32;99373.12;4012593;85;30810;-76
2021/03/10 05:30:11;;;;;;;147.03;57.37;;;;;;;-6.82;71.62;99370.85;4031461;86;21215;-77
2021/03/10 05:36:12;;;;;;;160.00;59.97;;;;;;;-6.89;72.15;99368.91;3932925;88;21238;-77
2021/03/10 05:42:14;;;;;;;144.43;57.67;;;;;;;-6.68;72.37;99376.55;4030366;88;21194;-76
2021/03/10 05:48:15;;;;;;;140.37;58.00;;;;;;;-6.59;72.47;99371.83;4028853;88;21221;-76
2021/03/10 05:54:21;;;;;;;143.23;57.63;;;;;;;-6.45;72.75;99378.84;4020976;86;21366;-77
2021/03/10 06:00:23;;;;;;;137.30;57.90;;;;;;;-6.25;72.81;99386.19;4010997;85;21935;-76
2021/03/10 06:06:28;;;;;;;150.63;60.73;;;;;;;-6.10;73.02;99396.93;4004395;87;21501;-76
2021/03/10 06:12:42;;;;;;;141.20;60.70;;;;;;;-5.91;73.36;99391.45;4042390;86;21222;-76
2021/03/10 06:18:44;;;;;;;152.27;61.57;;;;;;;-5.53;74.02;99386.52;4063964;86;22543;-76
2021/03/10 06:24:54;;;;;;;158.03;63.43;;;;;;;-4.86;74.68;99388.58;4064725;86;21225;-76
2021/03/10 06:30:55;;;;;;;168.10;70.10;;;;;;;-4.11;74.41;99397.64;3940463;85;26082;-76
2021/03/10 06:36:57;;;;;;;166.13;70.33;;;;;;;-3.55;74.39;99408.45;4246082;82;21161;-80
2021/03/10 06:42:59;;;;;;;152.67;70.90;;;;;;;-2.92;74.21;99412.17;4248448;82;21193;-77
2021/03/10 06:49:04;;;;;;;166.47;71.60;;;;;;;-2.41;73.56;99412.88;4238658;82;21105;-77
2021/03/10 06:55:07;;;;;;;150.23;66.50;;;;;;;-2.03;72.89;99425.44;4196893;83;21533;-77
2021/03/10 07:01:08;;;;;;;146.93;65.20;;;;;;;-1.78;72.65;99437.80;4199880;83;21193;-78
2021/03/10 07:07:10;;;;;;;135.97;63.00;;;;;;;-1.81;72.51;99436.49;4200580;83;21197;-78
2021/03/10 07:13:13;;;;;;;146.60;64.17;;;;;;;-1.47;72.22;99436.39;4209303;83;21220;-78
2021/03/10 07:19:15;;;;;;;153.50;66.70;;;;;;;-1.16;72.02;99436.84;4199944;83;21252;-79
2021/03/10 07:25:44;;;;;;;136.57;62.37;;;;;;;-0.88;71.70;99435.41;4124421;85;21347;-80
2021/03/10 07:31:46;;;;;;;133.03;60.90;;;;;;;-0.69;71.51;99448.28;4091022;84;21337;-79
2021/03/10 07:37:54;;;;;;;134.37;59.17;;;;;;;-0.55;71.55;99444.34;4102978;84;21285;-80
2021/03/10 07:43:58;;;;;;;125.50;55.13;;;;;;;-0.22;71.62;99450.80;4089202;84;21173;-81
2021/03/10 07:50:02;;;;;;;122.17;54.37;;;;;;;0.07;71.36;99463.25;4093868;86;21186;-80
2021/03/10 07:56:05;;;;;;;108.30;53.30;;;;;;;0.48;70.49;99463.61;4093167;84;21156;-80
2021/03/10 08:02:09;;;;;;;87.95;45.15;;;;;;;0.49;69.76;99457.11;4098862;86;21599;-80
2021/03/10 08:08:16;;;;;;;97.97;43.87;;;;;;;1.14;69.27;99448.27;4092531;84;21358;-80
2021/03/10 08:14:17;;;;;;;;;;;;;;;1.64;68.93;99447.92;4060842;84;21234;-81
2021/03/10 08:20:21;;;;;;;80.22;38.88;;;;;;;1.64;66.86;99448.48;4054142;86;20500;-81
2021/03/10 08:26:23;;;;;;;70.17;33.88;;;;;;;2.34;67.45;99451.33;4027827;85;21394;-79
2021/03/10 08:32:30;;;;;;;70.05;35.45;;;;;;;3.01;66.58;99455.42;4051859;86;21223;-80
2021/03/10 08:38:32;;;;;;;75.05;35.78;;;;;;;3.45;65.92;99449.79;4051587;86;21215;-80
2021/03/10 08:44:40;;;;;;;59.73;30.60;;;;;;;3.51;65.58;99455.86;4115608;85;21192;-81
2021/03/10 08:50:45;;;;;;;24.85;12.15;;;;;;;3.54;64.26;99456.00;4115342;85;21339;-81
2021/03/10 08:56:50;;;;;;;22.10;10.55;;;;;;;4.11;62.48;99453.91;4183173;83;21187;-82
2021/03/10 09:02:52;;;;;;;19.80;9.38;;;;;;;4.61;61.79;99451.64;4182787;83;21676;-82
2021/03/10 09:08:55;;;;;;;18.65;9.23;;;;;;;5.00;60.36;99449.15;4062347;84;44147;-82
2021/03/10 09:14:57;;;;;;;23.60;12.55;;;;;;;5.65;59.24;99449.94;4108491;84;21358;-83
2021/03/10 09:21:00;;;;;;;23.85;13.65;;;;;;;5.70;56.02;99453.23;4116624;85;21333;-83
2021/03/10 09:27:04;;;;;;;17.92;10.98;;;;;;;5.98;57.14;99448.09;4121954;85;21860;-81
2021/03/10 09:33:06;;;;;;;23.75;11.93;;;;;;;6.19;53.48;99448.84;4118384;85;22001;-82
2021/03/10 09:39:09;;;;;;;19.90;11.48;;;;;;;5.52;47.67;99445.00;4116045;85;21624;-80
2021/03/10 09:45:26;;;;;;;27.15;12.80;;;;;;;5.69;45.92;99445.42;4118669;85;21223;-83
2021/03/10 09:51:28;;;;;;;17.62;10.55;;;;;;;5.61;47.41;99442.20;4069382;81;27623;-84
2021/03/10 09:57:32;;;;;;;22.22;11.33;;;;;;;6.69;46.63;99437.17;4000404;86;21260;-85
2021/03/10 10:03:33;;;;;;;19.52;10.28;;;;;;;7.10;49.00;99451.14;3999846;86;21354;-86
2021/03/10 10:09:37;;;;;;;16.90;10.28;;;;;;;7.20;47.38;99450.13;4006092;87;21261;-86
2021/03/10 10:15:40;;;;;;;19.57;9.75;;;;;;;7.84;46.16;99438.66;4073056;79;28443;-87
2021/03/10 14:10:53;;;;;;;22.02;11.40;;;;;;;3.27;38.37;99454.95;4500989;75;41363;-90
2021/03/10 14:16:56;;;;;;;20.40;11.55;;;;;;;2.99;38.52;99466.56;4169829;81;34835;-88
2021/03/10 14:22:57;;;;;;;22.70;11.73;;;;;;;2.80;38.85;99456.55;4070433;85;21843;-88
2021/03/10 14:28:59;;;;;;;19.42;11.15;;;;;;;2.87;38.96;99458.80;4138394;84;21341;-89
2021/03/10 14:35:01;;;;;;;21.12;10.50;;;;;;;3.06;39.06;99456.64;4066277;85;21380;-88
2021/03/10 14:41:03;;;;;;;16.37;10.55;;;;;;;3.23;39.33;99448.56;4060826;81;45860;-89
2021/03/10 14:47:05;;;;;;;30.50;16.35;;;;;;;3.16;39.05;99442.25;4028764;86;21214;-88
2021/03/10 14:53:06;;;;;;;24.98;11.55;;;;;;;2.99;38.95;99434.68;4031277;86;21213;-88
2021/03/10 14:59:09;;;;;;;18.48;10.50;;;;;;;2.63;39.36;99438.91;4025714;86;21234;-87
2021/03/10 15:05:12;;;;;;;18.98;9.60;;;;;;;2.56;39.33;99426.97;4037361;86;21300;-89
2021/03/10 15:11:15;;;;;;;24.47;10.53;;;;;;;2.43;39.61;99430.55;4034706;86;21258;-89
2021/03/10 15:17:16;;;;;;;22.48;11.22;;;;;;;2.32;39.84;99423.28;4042250;86;21235;-88
2021/03/10 15:23:20;;;;;;;27.95;11.63;;;;;;;2.14;39.93;99422.95;4038891;86;21377;-88
2021/03/10 15:29:22;;;;;;;23.90;11.00;;;;;;;1.99;40.12;99433.34;4031235;86;21196;-90
2021/03/10 15:35:24;;;;;;;21.52;10.85;;;;;;;1.88;40.32;99425.25;4034981;86;21246;-89
2021/03/10 15:41:26;;;;;;;26.93;12.60;;;;;;;1.76;40.31;99431.19;4032640;86;21283;-87
2021/03/10 15:47:27;;;;;;;24.80;12.58;;;;;;;1.63;40.37;99443.64;4047557;84;48841;-89
2021/03/10 15:53:29;;;;;;;23.32;12.13;;;;;;;1.48;40.56;99425.66;4149366;84;21391;-89
2021/03/10 15:59:30;;;;;;;30.62;12.73;;;;;;;1.27;40.75;99438.80;4160246;84;21715;-90
2021/03/10 16:05:32;;;;;;;24.77;12.53;;;;;;;1.13;41.01;99449.34;4191224;84;21180;-89
2021/03/10 16:11:34;;;;;;;22.07;11.22;;;;;;;1.04;41.16;99447.93;4160443;83;46017;-88
2021/03/10 16:17:36;;;;;;;24.20;11.65;;;;;;;0.91;41.28;99450.08;4257752;82;21183;-89
2021/03/10 16:23:38;;;;;;;22.87;11.78;;;;;;;0.77;41.38;99464.65;4306606;81;21211;-89
2021/03/10 16:29:40;;;;;;;23.15;11.70;;;;;;;0.58;41.61;99464.74;4282665;80;21228;-87
2021/03/10 16:35:43;;;;;;;26.37;12.68;;;;;;;0.45;41.81;99472.82;4270134;78;356962;-87
2021/03/10 16:41:51;;;;;;;23.22;12.47;;;;;;;0.30;42.16;99465.80;4222800;83;21218;-89
2021/03/10 16:47:53;;;;;;;24.77;13.38;;;;;;;0.20;42.20;99473.27;4235013;83;21206;-88
2021/03/10 16:53:55;;;;;;;28.02;14.38;;;;;;;0.14;42.42;99483.88;4218686;83;21708;-87
2021/03/10 16:59:56;;;;;;;35.23;16.75;;;;;;;0.06;42.42;99483.20;4218567;83;21222;-89
2021/03/10 17:06:00;;;;;;;66.33;35.00;;;;;;;-0.16;42.60;99479.78;4230929;83;21237;-87
2021/03/10 17:12:01;;;;;;;64.00;36.30;;;;;;;-0.35;43.05;99485.73;4241583;83;21756;-88
2021/03/10 17:18:03;;;;;;;71.30;34.93;;;;;;;-0.43;43.28;99492.56;4242094;83;22095;-88
2021/03/10 17:24:06;;;;;;;81.47;38.00;;;;;;;-0.56;43.66;99487.09;4243362;83;21237;-88
2021/03/10 17:30:09;;;;;;;131.47;51.30;;;;;;;-0.73;43.94;99488.14;4229586;82;21216;-88
2021/03/10 17:36:12;;;;;;;142.97;59.47;;;;;;;-0.85;44.22;99499.33;4249272;83;21217;-90
2021/03/10 17:42:14;;;;;;;130.37;52.57;;;;;;;-0.92;44.51;99505.59;4230605;83;21805;-89
2021/03/10 17:48:15;;;;;;;111.63;48.80;;;;;;;-1.01;44.69;99510.00;4242971;83;21474;-88
2021/03/10 17:54:17;;;;;;;85.93;36.33;;;;;;;-1.13;45.07;99510.95;4253281;83;21193;-87
2021/03/10 18:00:19;;;;;;;67.10;31.97;;;;;;;-1.26;45.30;99504.11;4099577;81;9999794;-91
2021/03/10 18:06:21;;;;;;;68.03;30.37;;;;;;;-1.35;45.64;99503.95;4209478;83;21218;-89
2021/03/10 18:12:23;;;;;;;76.77;30.97;;;;;;;-1.36;45.71;99519.00;4206817;83;21356;-89
2021/03/10 18:18:25;;;;;;;67.40;31.70;;;;;;;-1.46;45.87;99513.72;4220380;83;21760;-87
2021/03/10 18:24:26;;;;;;;73.17;31.23;;;;;;;-1.55;46.11;99511.41;4224411;83;21348;-88
2021/03/10 18:30:28;;;;;;;69.60;34.80;;;;;;;-1.59;46.45;99528.61;4218967;83;21683;-88
2021/03/10 18:36:31;;;;;;;95.07;39.43;;;;;;;-1.66;46.67;99524.12;4211222;83;21802;-88
2021/03/10 18:42:33;;;;;;;162.00;52.83;;;;;;;-1.71;46.66;99512.87;4226469;83;21361;-89
2021/03/10 18:48:34;;;;;;;70.40;31.27;;;;;;;-1.79;47.06;99502.77;4220491;83;21222;-87
2021/03/10 18:54:36;;;;;;;70.97;30.47;;;;;;;-1.93;47.27;99523.82;4214003;83;21194;-87
2021/03/10 19:00:37;;;;;;;78.93;34.70;;;;;;;-2.15;48.41;99534.98;4195717;82;100833;-86
2021/03/10 19:06:39;;;;;;;64.87;27.97;;;;;;;-2.36;48.14;99542.08;4151480;84;21353;-88
2021/03/10 19:12:42;;;;;;;69.50;30.07;;;;;;;-2.51;49.31;99552.91;4160856;83;21209;-87
2021/03/10 19:18:44;;;;;;;65.00;30.40;;;;;;;-2.50;49.49;99557.17;4135374;83;21225;-86
2021/03/10 19:24:45;;;;;;;77.27;36.30;;;;;;;-2.56;50.65;99559.63;4161139;83;21200;-85
2021/03/10 19:30:47;;;;;;;78.23;36.97;;;;;;;-2.72;50.45;99556.22;4153107;83;21723;-86
2021/03/10 19:36:49;;;;;;;101.73;40.67;;;;;;;-2.95;51.01;99562.73;4170084;83;21605;-85
2021/03/10 19:42:51;;;;;;;104.73;43.53;;;;;;;-3.24;50.69;99570.58;4178017;83;21163;-85
2021/03/10 19:48:53;;;;;;;107.00;41.97;;;;;;;-3.28;51.06;99569.00;4182882;83;21206;-84
2021/03/10 19:54:55;;;;;;;115.83;44.67;;;;;;;-3.37;51.44;99558.55;4173886;83;21667;-83
2021/03/10 20:00:57;;;;;;;111.87;45.33;;;;;;;-3.47;51.66;99560.45;4169364;83;22326;-83
2021/03/10 20:06:59;;;;;;;131.53;54.63;;;;;;;-3.58;52.18;99568.23;4166853;83;21584;-83
2021/03/10 20:13:01;;;;;;;127.13;50.73;;;;;;;-3.63;52.42;99577.06;4168291;84;21219;-84
2021/03/10 20:19:03;;;;;;;129.27;51.60;;;;;;;-3.64;52.44;99574.66;4166970;84;21624;-82
2021/03/10 20:25:07;;;;;;;128.60;51.03;;;;;;;-3.81;52.61;99566.10;4165304;84;21215;-83
2021/03/10 20:31:09;;;;;;;119.20;48.87;;;;;;;-3.94;53.73;99567.96;4168600;84;21199;-84
2021/03/10 20:37:11;;;;;;;118.00;49.63;;;;;;;-3.93;54.75;99564.23;4166949;84;21928;-81
2021/03/10 20:43:12;;;;;;;119.70;52.27;;;;;;;-3.78;54.90;99565.56;4160952;84;21679;-82
2021/03/10 20:49:14;;;;;;;126.63;51.90;;;;;;;-3.86;54.00;99560.22;4158438;84;21204;-86
2021/03/10 20:55:19;;;;;;;146.37;57.70;;;;;;;-4.14;53.88;99550.57;4161319;84;21377;-82
2021/03/10 21:01:21;;;;;;;132.93;55.43;;;;;;;-4.24;54.54;99548.69;4149676;84;21228;-83
2021/03/10 21:07:23;;;;;;;123.47;48.10;;;;;;;-4.35;54.60;99547.06;4161583;84;21401;-83
2021/03/10 21:13:24;;;;;;;124.73;51.07;;;;;;;-4.50;55.90;99547.56;4142063;84;21192;-82
2021/03/10 21:19:26;;;;;;;136.80;53.47;;;;;;;-4.41;56.45;99547.31;4144662;84;21799;-82
2021/03/10 21:25:28;;;;;;;154.17;59.03;;;;;;;-4.51;55.93;99531.28;4147162;84;21192;-82
2021/03/10 21:31:30;;;;;;;143.93;56.47;;;;;;;-4.67;55.89;99525.62;4142470;84;21164;-82
2021/03/10 21:37:31;;;;;;;135.03;55.63;;;;;;;-4.88;56.34;99508.20;4143689;84;21389;-82
2021/03/10 21:43:33;;;;;;;118.80;52.07;;;;;;;-4.96;56.48;99493.21;4149422;84;21204;-81
2021/03/10 21:49:34;;;;;;;99.40;38.93;;;;;;;-5.13;57.07;99482.75;4129824;84;21367;-82
2021/03/10 21:55:36;;;;;;;84.17;32.53;;;;;;;-5.14;57.03;99458.47;4146221;84;21247;-84
2021/03/10 22:01:38;;;;;;;73.40;27.77;;;;;;;-4.63;57.40;99451.36;4139397;84;21204;-82
2021/03/10 22:07:39;;;;;;;98.07;38.47;;;;;;;-4.23;56.54;99447.39;4124199;84;21197;-81
2021/03/10 22:13:42;;;;;;;99.73;40.07;;;;;;;-4.06;56.63;99450.59;4126295;84;21235;-82
2021/03/10 22:19:44;;;;;;;269.80;89.20;;;;;;;-4.12;57.67;99450.30;4143746;84;21549;-81
2021/03/10 22:25:46;;;;;;;336.47;117.70;;;;;;;-4.23;57.93;99452.73;4145589;84;21240;-82
2021/03/10 22:31:47;;;;;;;241.83;83.80;;;;;;;-4.28;58.07;99454.07;4140011;84;21443;-82
2021/03/10 22:37:49;;;;;;;235.63;82.67;;;;;;;-4.49;58.22;99457.00;4142282;84;21672;-82
2021/03/10 22:43:51;;;;;;;241.27;84.60;;;;;;;-4.49;58.67;99465.80;4136636;84;21239;-81
2021/03/10 22:49:52;;;;;;;261.10;84.87;;;;;;;-4.54;58.27;99465.02;4137703;84;21196;-81
2021/03/10 22:55:54;;;;;;;228.83;80.87;;;;;;;-4.80;58.41;99461.48;4145897;84;21229;-82
2021/03/10 23:01:55;;;;;;;225.87;76.73;;;;;;;-4.91;58.43;99456.66;4145058;84;22239;-82
2021/03/10 23:07:57;;;;;;;216.13;75.27;;;;;;;-5.05;58.77;99460.89;4140898;84;21220;-82
2021/03/10 23:13:59;;;;;;;199.43;72.43;;;;;;;-5.06;59.35;99467.83;4169441;84;21227;-83
2021/03/10 23:20:00;;;;;;;221.67;75.73;;;;;;;-5.11;58.97;99462.47;4130790;84;21219;-85
2021/03/10 23:26:04;;;;;;;209.37;72.97;;;;;;;-5.45;59.06;99461.27;4163831;84;21695;-81
2021/03/10 23:32:05;;;;;;;237.20;74.17;;;;;;;-5.46;59.68;99460.46;4169224;84;21350;-81
2021/03/10 23:38:07;;;;;;;203.47;69.67;;;;;;;-5.52;60.08;99454.02;4169434;84;21731;-82
2021/03/10 23:44:09;;;;;;;193.27;66.80;;;;;;;-5.54;60.50;99454.28;4165900;84;21183;-82
2021/03/10 23:50:16;;;;;;;174.03;61.00;;;;;;;-5.65;60.22;99460.63;4153992;84;21362;-82
2021/03/10 23:56:18;;;;;;;160.80;57.70;;;;;;;-5.66;60.82;99460.36;4164430;84;21354;-82
